National Weather Service United States Department of Commerce

Storm system to bring potential for heavy rainfall, flooding, and severe thunderstorms

A slow moving low pressure system will bring the threat for heavy rainfall, flash flooding, and severe thunderstorms Sunday into Monday. The main threat areas include the Mid South, Southeast U.S, and the southern Mid Atlantic. Read More >


497
FTPA31 PHFO 230521
TAFSTU
TAF
NSTU 230521Z 2306/2406 14010KT P6SM VCSH SCT020 SCT040 BKN110
FM240000 08010KT P6SM -SHRA SCT020 BKN040 BKN110
AMD NOT SKED=


000
SAZS31 NSTU 231257
MTRPPG
METAR NSTU 231254Z 13010KT 10SM FEW018 SCT040 BKN100 28/27 A2981 RMK
SLP097 T02760271

METAR Formatted Surface Weather Observation  Issued: 04/23/2017 01:04:06 AM SST

NSTU Observation History

 

Significant Weather Charts